createdAt,value
2022-08-14T00:02:44.410Z,3.50
2022-08-14T00:05:58.411Z,3.50
2022-08-14T00:08:58.989Z,3.30
2022-08-14T00:11:58.276Z,3.70
2022-08-14T00:15:06.168Z,3.40
2022-08-14T00:18:14.388Z,3.50
2022-08-14T00:21:22.447Z,3.60
2022-08-14T00:24:28.886Z,3.80
2022-08-14T00:27:27.740Z,3.60
2022-08-14T00:30:31.813Z,3.40
2022-08-14T00:33:51.614Z,3.40
2022-08-14T00:36:49.368Z,3.60
2022-08-14T00:39:47.194Z,3.70
2022-08-14T00:42:56.887Z,3.80
2022-08-14T00:46:05.102Z,3.80
2022-08-14T00:49:14.758Z,3.60
2022-08-14T00:52:22.339Z,3.70
2022-08-14T00:55:30.570Z,3.80
2022-08-14T00:58:44.866Z,4.20
2022-08-14T01:01:42.371Z,3.90
2022-08-14T01:04:54.041Z,3.80
2022-08-14T01:07:56.787Z,4.10
2022-08-14T01:10:54.256Z,4.00
2022-08-14T01:14:04.929Z,4.00
2022-08-14T01:17:08.968Z,4.10
2022-08-14T01:20:27.601Z,4.50
2022-08-14T01:23:22.309Z,4.30
2022-08-14T01:26:35.792Z,4.60
2022-08-14T01:30:00.578Z,4.20
2022-08-14T01:32:42.714Z,4.50
2022-08-14T01:36:02.809Z,4.60
2022-08-14T01:38:55.844Z,4.50
2022-08-14T01:42:04.193Z,4.30
2022-08-14T01:45:05.414Z,4.10
2022-08-14T01:48:14.204Z,4.30
2022-08-14T01:51:22.277Z,4.60
2022-08-14T01:54:38.269Z,4.40
2022-08-14T01:57:49.637Z,4.20
2022-08-14T02:00:40.350Z,3.90
2022-08-14T02:03:53.308Z,4.20
2022-08-14T02:06:54.082Z,4.70
2022-08-14T02:10:01.894Z,4.30
2022-08-14T02:13:09.674Z,4.10
2022-08-14T02:16:22.343Z,4.00
2022-08-14T02:19:20.708Z,4.50
2022-08-14T02:22:33.140Z,4.30
2022-08-14T02:25:30.950Z,3.90
2022-08-14T02:28:57.317Z,4.10
2022-08-14T02:31:44.099Z,4.20
2022-08-14T02:34:52.434Z,4.30
2022-08-14T02:38:00.129Z,4.00
2022-08-14T02:41:08.900Z,4.30
2022-08-14T02:44:17.235Z,4.40
2022-08-14T02:47:22.435Z,4.00
2022-08-14T02:50:29.785Z,3.70
2022-08-14T02:53:31.445Z,3.90
2022-08-14T02:57:15.203Z,3.90
2022-08-14T02:59:46.240Z,3.90
2022-08-14T03:02:58.497Z,3.80
2022-08-14T03:05:56.162Z,3.70
2022-08-14T03:09:03.952Z,4.10
2022-08-14T03:12:11.779Z,4.10
2022-08-14T03:15:19.348Z,4.40
2022-08-14T03:18:32.057Z,4.40
2022-08-14T03:21:29.693Z,4.20
2022-08-14T03:24:38.757Z,3.70
2022-08-14T03:27:48.596Z,4.30
2022-08-14T03:30:52.270Z,4.50
2022-08-14T03:34:02.460Z,4.20
2022-08-14T03:37:39.129Z,4.50
2022-08-14T03:40:18.343Z,4.40
2022-08-14T03:43:28.427Z,4.60
2022-08-14T03:46:52.593Z,4.40
2022-08-14T03:49:35.255Z,4.70
2022-08-14T03:52:40.865Z,4.60
2022-08-14T03:55:43.569Z,4.70
2022-08-14T03:58:52.604Z,4.60
2022-08-14T04:02:01.733Z,4.50
2022-08-14T04:05:11.950Z,4.20
2022-08-14T04:08:22.718Z,4.60
2022-08-14T04:11:25.871Z,4.40
2022-08-14T04:14:37.135Z,5.00
2022-08-14T04:17:34.275Z,4.70
2022-08-14T04:20:54.809Z,4.30
2022-08-14T04:23:49.028Z,4.10
2022-08-14T04:26:55.694Z,4.20
2022-08-14T04:30:03.378Z,4.50
2022-08-14T04:33:20.290Z,4.20
2022-08-14T04:36:17.769Z,4.30
2022-08-14T04:39:25.556Z,4.60
2022-08-14T04:42:33.525Z,4.70
2022-08-14T04:45:41.059Z,4.50
2022-08-14T04:48:51.186Z,5.10
2022-08-14T04:51:56.208Z,5.70
2022-08-14T04:54:54.706Z,5.10
2022-08-14T04:58:03.329Z,5.60
2022-08-14T05:01:03.689Z,5.50
2022-08-14T05:04:14.677Z,5.50
2022-08-14T05:07:13.881Z,5.90
2022-08-14T05:10:24.759Z,5.70
2022-08-14T05:13:47.411Z,5.70
2022-08-14T05:16:39.047Z,6.30
2022-08-14T05:21:54.156Z,5.30
2022-08-14T05:22:56.178Z,5.50
2022-08-14T05:25:53.607Z,5.00
2022-08-14T05:29:00.836Z,5.30
2022-08-14T05:32:09.010Z,4.80
2022-08-14T05:35:16.631Z,4.50
2022-08-14T05:38:31.070Z,4.50
2022-08-14T05:41:53.759Z,4.60
2022-08-14T05:44:34.804Z,4.90
2022-08-14T05:47:43.719Z,4.20
2022-08-14T05:50:52.794Z,4.40
2022-08-14T05:54:13.566Z,4.30
2022-08-14T05:57:06.188Z,4.30
2022-08-14T06:00:13.960Z,4.50
2022-08-14T06:03:18.953Z,4.20
2022-08-14T06:06:26.502Z,4.20
2022-08-14T06:09:36.011Z,4.30
2022-08-14T06:12:55.530Z,4.20
2022-08-14T06:15:43.195Z,4.20
2022-08-14T06:18:52.760Z,3.80
2022-08-14T06:22:02.188Z,4.00
2022-08-14T06:25:10.689Z,4.20
2022-08-14T06:28:27.431Z,3.70
2022-08-14T06:31:18.471Z,3.80
2022-08-14T06:35:09.738Z,3.50
2022-08-14T06:37:34.272Z,3.80
2022-08-14T06:40:43.748Z,3.90
2022-08-14T06:43:54.105Z,4.00
2022-08-14T06:47:02.439Z,3.90
2022-08-14T06:50:09.834Z,3.80
2022-08-14T06:53:19.844Z,3.90
2022-08-14T06:56:27.570Z,3.70
2022-08-14T06:59:35.891Z,3.90
2022-08-14T07:02:44.064Z,4.10
2022-08-14T07:05:55.886Z,3.80
2022-08-14T07:08:55.296Z,4.10
2022-08-14T07:12:03.215Z,3.90
2022-08-14T07:15:11.708Z,3.70
2022-08-14T07:18:19.518Z,3.90
2022-08-14T07:21:27.149Z,4.20
2022-08-14T07:24:34.811Z,4.00
2022-08-14T07:27:43.080Z,3.90
2022-08-14T07:30:51.938Z,3.90
2022-08-14T07:33:59.743Z,4.00
2022-08-14T07:37:07.487Z,4.20
2022-08-14T07:40:22.105Z,4.00
2022-08-14T07:43:23.920Z,4.10
2022-08-14T07:46:32.019Z,3.60
2022-08-14T07:49:41.330Z,4.30
2022-08-14T07:52:50.829Z,3.80
2022-08-14T07:56:09.052Z,4.10
2022-08-14T07:59:04.674Z,4.30
2022-08-14T08:02:05.774Z,4.60
2022-08-14T08:05:13.736Z,4.40
2022-08-14T08:08:27.295Z,4.80
2022-08-14T08:11:24.610Z,4.20
2022-08-14T08:14:24.708Z,4.80
2022-08-14T08:17:34.352Z,4.50
2022-08-14T08:20:42.844Z,5.00
2022-08-14T08:23:51.129Z,4.60
2022-08-14T08:26:50.443Z,4.50
2022-08-14T08:29:58.628Z,4.50
2022-08-14T08:33:06.528Z,4.40
2022-08-14T08:36:18.780Z,4.60
2022-08-14T08:39:22.808Z,4.40
2022-08-14T08:42:24.440Z,4.50
2022-08-14T08:45:25.103Z,4.90
2022-08-14T08:48:31.560Z,4.90
2022-08-14T08:51:30.784Z,5.00
2022-08-14T08:54:31.105Z,4.30
2022-08-14T08:57:39.398Z,4.50
2022-08-14T09:00:48.810Z,4.60
2022-08-14T09:03:56.331Z,4.00
2022-08-14T09:07:10.109Z,4.30
2022-08-14T09:10:08.013Z,4.20
2022-08-14T09:13:15.588Z,4.50
2022-08-14T09:16:25.020Z,4.30
2022-08-14T09:19:32.838Z,5.10
2022-08-14T09:22:47.885Z,4.50
2022-08-14T09:26:01.073Z,4.30
2022-08-14T09:28:50.452Z,4.70
2022-08-14T09:31:58.486Z,4.70
2022-08-14T09:35:08.586Z,4.20
2022-08-14T09:38:19.531Z,4.40
2022-08-14T09:41:21.957Z,4.70
2022-08-14T09:44:30.435Z,4.10
2022-08-14T09:47:39.510Z,4.00
2022-08-14T09:50:50.558Z,3.90
2022-08-14T09:54:18.540Z,4.00
2022-08-14T09:57:04.004Z,4.30
2022-08-14T10:00:05.849Z,4.20
2022-08-14T10:03:09.171Z,4.40
2022-08-14T10:06:19.343Z,4.00
2022-08-14T10:09:27.847Z,3.80
2022-08-14T10:12:32.062Z,3.90
2022-08-14T10:15:40.678Z,3.70
2022-08-14T10:18:50.813Z,4.10
2022-08-14T10:21:59.023Z,4.00
2022-08-14T10:25:04.182Z,4.20
2022-08-14T10:28:04.686Z,4.10
2022-08-14T10:31:13.349Z,4.30
2022-08-14T10:34:29.031Z,4.00
2022-08-14T10:37:28.057Z,3.90
2022-08-14T10:40:38.432Z,4.40
2022-08-14T10:43:36.401Z,4.60
2022-08-14T10:47:40.777Z,4.40
2022-08-14T10:49:49.227Z,4.60
2022-08-14T10:52:50.408Z,4.20
2022-08-14T10:55:58.379Z,4.20
2022-08-14T10:59:06.040Z,4.50
2022-08-14T11:02:15.611Z,4.20
2022-08-14T11:05:26.548Z,4.40
2022-08-14T11:08:35.715Z,4.20
2022-08-14T11:11:44.046Z,4.30
2022-08-14T11:14:59.331Z,4.10
2022-08-14T11:17:55.753Z,4.60
2022-08-14T11:20:58.041Z,4.00
2022-08-14T11:24:54.516Z,4.60
2022-08-14T11:27:10.660Z,4.20
2022-08-14T11:30:50.459Z,4.50
2022-08-14T11:33:24.108Z,4.10
2022-08-14T11:36:35.213Z,4.10
2022-08-14T11:39:37.107Z,4.20
2022-08-14T11:42:57.021Z,4.10
2022-08-14T11:45:50.323Z,4.60
2022-08-14T11:49:03.860Z,4.60
2022-08-14T11:52:02.731Z,4.60
2022-08-14T11:55:10.106Z,4.30
2022-08-14T11:58:23.872Z,4.20
2022-08-14T12:01:21.559Z,4.30
2022-08-14T12:04:32.172Z,3.80
2022-08-14T12:07:30.978Z,4.10
2022-08-14T12:10:42.481Z,4.70
2022-08-14T12:13:44.302Z,4.50
2022-08-14T12:16:41.675Z,3.90
2022-08-14T12:19:51.033Z,4.00
2022-08-14T12:22:52.482Z,3.90
2022-08-14T12:26:12.021Z,4.10
2022-08-14T12:29:05.430Z,3.60
2022-08-14T12:32:14.222Z,4.20
2022-08-14T12:35:22.112Z,3.90
2022-08-14T12:38:29.985Z,3.70
2022-08-14T12:41:37.637Z,4.00
2022-08-14T12:44:45.767Z,4.20
2022-08-14T12:47:56.433Z,4.50
2022-08-14T12:51:04.040Z,4.00
2022-08-14T12:54:27.573Z,4.20
2022-08-14T12:57:20.620Z,4.10
2022-08-14T13:00:28.776Z,4.10
2022-08-14T13:03:36.817Z,3.90
2022-08-14T13:06:44.719Z,3.50
2022-08-14T13:09:48.419Z,3.30
2022-08-14T13:13:13.217Z,3.60
2022-08-14T13:16:02.322Z,3.60
2022-08-14T13:19:10.998Z,3.70
2022-08-14T13:22:10.043Z,3.60
2022-08-14T13:25:18.447Z,3.60
2022-08-14T13:28:33.103Z,3.50
2022-08-14T13:31:30.590Z,3.40
2022-08-14T13:34:31.586Z,3.40
2022-08-14T13:37:40.837Z,3.10
2022-08-14T13:40:48.553Z,3.30
2022-08-14T13:43:49.453Z,3.60
2022-08-14T13:46:54.266Z,3.80
2022-08-14T13:50:01.564Z,3.40
2022-08-14T13:53:09.651Z,3.50
2022-08-14T13:56:30.922Z,3.10
2022-08-14T13:59:37.950Z,3.50
2022-08-14T14:02:31.973Z,3.90
2022-08-14T14:05:52.636Z,4.00
2022-08-14T14:08:43.146Z,3.70
2022-08-14T14:11:40.857Z,3.40
2022-08-14T14:14:51.837Z,3.90
2022-08-14T14:17:52.133Z,3.20
2022-08-14T14:21:00.682Z,3.90
2022-08-14T14:24:08.274Z,3.50
2022-08-14T14:27:39.648Z,3.60
2022-08-14T14:30:46.293Z,3.30
2022-08-14T14:33:45.145Z,3.40
2022-08-14T14:36:28.260Z,3.50
2022-08-14T14:40:50.561Z,3.10
2022-08-14T14:42:41.898Z,3.40
2022-08-14T14:45:50.955Z,3.10
2022-08-14T14:49:01.155Z,3.10
2022-08-14T14:52:23.089Z,2.90
2022-08-14T14:55:17.141Z,2.80
2022-08-14T14:58:25.256Z,2.90
2022-08-14T15:01:33.289Z,3.20
2022-08-14T15:04:43.772Z,3.10
2022-08-14T15:07:52.786Z,2.80
2022-08-14T15:11:00.594Z,2.60
2022-08-14T15:14:56.070Z,2.80
2022-08-14T15:17:14.096Z,2.60
2022-08-14T15:20:30.527Z,2.50
2022-08-14T15:23:43.743Z,3.00
2022-08-14T15:26:32.909Z,2.80
2022-08-14T15:29:43.133Z,3.30
2022-08-14T15:32:51.875Z,3.00
2022-08-14T15:36:01.545Z,2.70
2022-08-14T15:39:09.938Z,3.40
2022-08-14T15:42:18.148Z,2.80
2022-08-14T15:45:25.626Z,2.70
2022-08-14T15:48:35.260Z,2.60
2022-08-14T15:51:42.346Z,3.30
2022-08-14T15:54:51.417Z,3.00
2022-08-14T15:58:03.281Z,2.90
2022-08-14T16:01:01.858Z,2.80
2022-08-14T16:04:11.239Z,2.80
2022-08-14T16:07:14.781Z,2.80
2022-08-14T16:10:30.650Z,2.70
2022-08-14T16:13:39.641Z,2.70
2022-08-14T16:16:49.786Z,2.70
2022-08-14T16:19:43.979Z,2.70
2022-08-14T16:22:57.690Z,3.00
2022-08-14T16:25:46.738Z,2.80
2022-08-14T16:28:49.282Z,2.80
2022-08-14T16:31:59.507Z,2.80
2022-08-14T16:35:09.783Z,3.00
2022-08-14T16:38:19.539Z,3.00
2022-08-14T16:41:23.849Z,3.20
2022-08-14T16:44:34.003Z,3.60
2022-08-14T16:47:41.488Z,3.60
2022-08-14T16:50:50.091Z,3.70
2022-08-14T16:53:57.921Z,3.90
2022-08-14T16:57:06.562Z,3.80
2022-08-14T17:00:19.767Z,3.70
2022-08-14T17:03:21.394Z,3.80
2022-08-14T17:06:33.356Z,4.20
2022-08-14T17:09:31.250Z,4.30
2022-08-14T17:12:40.332Z,3.80
2022-08-14T17:15:49.546Z,4.20
2022-08-14T17:18:55.433Z,4.20
2022-08-14T17:21:56.405Z,3.90
2022-08-14T17:25:04.180Z,4.50
2022-08-14T17:28:50.700Z,3.90
2022-08-14T17:31:17.910Z,4.30
2022-08-14T17:34:26.393Z,4.30
2022-08-14T17:37:27.659Z,4.30
2022-08-14T17:40:36.104Z,4.60
2022-08-14T17:43:44.546Z,4.20
2022-08-14T17:46:49.824Z,4.40
2022-08-14T17:49:52.868Z,4.00
2022-08-14T17:53:01.203Z,4.60
2022-08-14T17:56:09.021Z,4.30
2022-08-14T17:59:17.775Z,4.60
2022-08-14T18:02:30.880Z,4.50
2022-08-14T18:06:09.649Z,4.70
2022-08-14T18:08:40.845Z,4.30
2022-08-14T18:11:46.403Z,4.10
2022-08-14T18:14:48.634Z,4.70
2022-08-14T18:17:53.106Z,4.60
2022-08-14T18:21:42.925Z,4.00
2022-08-14T18:23:57.402Z,4.70
2022-08-14T18:27:08.676Z,4.30
2022-08-14T18:30:39.693Z,4.10
2022-08-14T18:33:11.234Z,4.40
2022-08-14T18:36:48.474Z,4.40
2022-08-14T18:39:18.533Z,4.70
2022-08-14T18:42:30.270Z,4.60
2022-08-14T18:45:28.949Z,5.10
2022-08-14T18:48:50.915Z,4.60
2022-08-14T18:51:45.615Z,4.60
2022-08-14T18:54:48.470Z,4.80
2022-08-14T18:57:45.256Z,4.50
2022-08-14T19:00:53.597Z,4.50
2022-08-14T19:04:01.288Z,4.80
2022-08-14T19:07:09.190Z,5.00
2022-08-14T19:10:16.980Z,4.20
2022-08-14T19:13:21.904Z,4.80
2022-08-14T19:16:18.387Z,4.80
2022-08-14T19:19:26.505Z,4.60
2022-08-14T19:22:30.008Z,4.40
2022-08-14T19:25:27.252Z,5.20
2022-08-14T19:28:32.211Z,5.00
2022-08-14T19:31:42.347Z,4.80
2022-08-14T19:34:52.258Z,5.00
2022-08-14T19:37:52.454Z,4.70
2022-08-14T19:40:51.576Z,4.90
2022-08-14T19:43:59.816Z,5.60
2022-08-14T19:47:08.086Z,4.90
2022-08-14T19:50:38.201Z,5.20
2022-08-14T19:53:17.650Z,4.70
2022-08-14T19:56:28.811Z,4.80
2022-08-14T19:59:21.083Z,4.60
2022-08-14T20:02:30.111Z,4.20
2022-08-14T20:05:46.059Z,4.40
2022-08-14T20:11:00.608Z,4.40
2022-08-14T20:12:02.725Z,4.90
2022-08-14T20:14:53.218Z,4.50
2022-08-14T20:18:01.661Z,4.20
2022-08-14T20:21:09.681Z,4.20
2022-08-14T20:24:30.860Z,4.20
2022-08-14T20:27:23.283Z,4.50
2022-08-14T20:30:33.528Z,4.50
2022-08-14T20:33:32.297Z,4.60
2022-08-14T20:36:37.878Z,4.20
2022-08-14T20:39:45.618Z,3.70
2022-08-14T20:42:50.706Z,4.00
2022-08-14T20:45:58.333Z,4.60
2022-08-14T20:49:05.991Z,3.90
2022-08-14T20:52:18.737Z,4.20
2022-08-14T20:55:16.535Z,4.60
2022-08-14T20:58:42.217Z,4.30
2022-08-14T21:01:33.125Z,3.70
2022-08-14T21:04:30.170Z,4.40
2022-08-14T21:07:37.842Z,3.80
2022-08-14T21:10:45.995Z,4.30
2022-08-14T21:14:19.705Z,3.90
2022-08-14T21:17:02.014Z,4.40
2022-08-14T21:20:25.306Z,4.20
2022-08-14T21:23:15.468Z,4.20
2022-08-14T21:26:50.582Z,4.30
2022-08-14T21:29:28.342Z,4.40
2022-08-14T21:32:50.101Z,4.80
2022-08-14T21:35:42.109Z,4.10
2022-08-14T21:38:50.425Z,4.50
2022-08-14T21:41:59.134Z,4.20
2022-08-14T21:45:07.656Z,4.70
2022-08-14T21:48:16.829Z,4.30
2022-08-14T21:51:52.949Z,4.50
2022-08-14T21:54:30.033Z,4.10
2022-08-14T21:57:56.687Z,4.40
2022-08-14T22:00:36.032Z,4.30
2022-08-14T22:03:37.763Z,4.40
2022-08-14T22:06:40.852Z,4.30
2022-08-14T22:09:55.335Z,5.20
2022-08-14T22:12:58.506Z,4.00
2022-08-14T22:15:59.552Z,4.50
2022-08-14T22:19:00.800Z,4.60
2022-08-14T22:22:09.500Z,4.40
2022-08-14T22:25:19.733Z,4.60
2022-08-14T22:28:27.582Z,4.60
2022-08-14T22:31:35.046Z,5.20
2022-08-14T22:34:32.766Z,4.90
2022-08-14T22:37:44.962Z,4.80
2022-08-14T22:41:02.398Z,4.40
2022-08-14T22:43:47.575Z,5.00
2022-08-14T22:46:02.346Z,4.20
2022-08-14T22:49:00.387Z,4.60
2022-08-14T22:52:32.735Z,4.70
2022-08-14T22:55:10.650Z,4.90
2022-08-14T22:57:22.541Z,5.20
2022-08-14T23:00:30.563Z,5.00
2022-08-14T23:03:38.328Z,5.20
2022-08-14T23:07:03.828Z,4.70
2022-08-14T23:09:56.698Z,4.40
2022-08-14T23:12:54.450Z,4.50
2022-08-14T23:15:52.486Z,4.90
2022-08-14T23:19:00.092Z,4.40
2022-08-14T23:22:07.951Z,5.00
2022-08-14T23:25:15.848Z,5.20
2022-08-14T23:28:34.641Z,4.50
2022-08-14T23:31:35.247Z,4.30
2022-08-14T23:34:33.234Z,4.40
2022-08-14T23:37:41.407Z,3.90
2022-08-14T23:40:50.096Z,4.70
2022-08-14T23:43:57.738Z,4.30
2022-08-14T23:47:11.823Z,4.90
2022-08-14T23:50:34.067Z,4.70
2022-08-14T23:53:47.328Z,4.10
2022-08-14T23:56:30.304Z,3.90
2022-08-14T23:59:27.573Z,4.40
